sensor_id;sensor_type;location;lat;lon;timestamp;P1;durP1;ratioP1;P2;durP2;ratioP2
24096;SDS011;12275;48.550;12.132;2023-07-13T00:01:27;1513.72;;;999.90;;
24096;SDS011;12275;48.550;12.132;2023-07-13T00:03:53;1508.82;;;999.90;;
24096;SDS011;12275;48.550;12.132;2023-07-13T00:06:20;1514.78;;;999.90;;
24096;SDS011;12275;48.550;12.132;2023-07-13T00:08:46;1512.28;;;999.90;;
24096;SDS011;12275;48.550;12.132;2023-07-13T00:11:13;1528.73;;;999.90;;
24096;SDS011;12275;48.550;12.132;2023-07-13T00:13:39;1518.85;;;999.90;;
24096;SDS011;12275;48.550;12.132;2023-07-13T00:16:06;1509.03;;;999.90;;
24096;SDS011;12275;48.550;12.132;2023-07-13T00:18:32;1548.75;;;999.90;;
24096;SDS011;12275;48.550;12.132;2023-07-13T00:20:57;1559.93;;;999.90;;
24096;SDS011;12275;48.550;12.132;2023-07-13T00:23:31;1518.22;;;999.90;;
24096;SDS011;12275;48.550;12.132;2023-07-13T00:25:59;1513.82;;;999.90;;
24096;SDS011;12275;48.550;12.132;2023-07-13T00:28:28;1502.00;;;999.90;;
24096;SDS011;12275;48.550;12.132;2023-07-13T00:30:54;1493.47;;;999.90;;
24096;SDS011;12275;48.550;12.132;2023-07-13T00:33:20;1517.33;;;999.90;;
24096;SDS011;12275;48.550;12.132;2023-07-13T00:35:46;1479.28;;;999.90;;
24096;SDS011;12275;48.550;12.132;2023-07-13T00:38:12;1505.10;;;999.90;;
24096;SDS011;12275;48.550;12.132;2023-07-13T00:40:38;1506.03;;;999.90;;
24096;SDS011;12275;48.550;12.132;2023-07-13T00:43:04;1495.60;;;999.90;;
24096;SDS011;12275;48.550;12.132;2023-07-13T00:48:02;1504.25;;;999.90;;
24096;SDS011;12275;48.550;12.132;2023-07-13T00:50:27;1521.68;;;999.90;;
24096;SDS011;12275;48.550;12.132;2023-07-13T00:52:53;1526.30;;;999.90;;
24096;SDS011;12275;48.550;12.132;2023-07-13T00:55:22;1523.95;;;999.90;;
24096;SDS011;12275;48.550;12.132;2023-07-13T00:57:48;1496.38;;;999.90;;
24096;SDS011;12275;48.550;12.132;2023-07-13T01:00:14;1482.73;;;999.90;;
24096;SDS011;12275;48.550;12.132;2023-07-13T01:02:42;1500.43;;;999.90;;
24096;SDS011;12275;48.550;12.132;2023-07-13T01:05:12;1500.97;;;999.90;;
24096;SDS011;12275;48.550;12.132;2023-07-13T01:07:40;1509.65;;;999.90;;
24096;SDS011;12275;48.550;12.132;2023-07-13T01:10:09;1540.55;;;999.90;;
24096;SDS011;12275;48.550;12.132;2023-07-13T01:12:36;1542.90;;;999.90;;
24096;SDS011;12275;48.550;12.132;2023-07-13T01:15:02;1526.35;;;999.90;;
24096;SDS011;12275;48.550;12.132;2023-07-13T01:17:29;1503.45;;;999.90;;
24096;SDS011;12275;48.550;12.132;2023-07-13T01:19:58;1525.43;;;999.90;;
24096;SDS011;12275;48.550;12.132;2023-07-13T01:22:23;1525.90;;;999.90;;
24096;SDS011;12275;48.550;12.132;2023-07-13T01:24:50;1533.28;;;999.90;;
24096;SDS011;12275;48.550;12.132;2023-07-13T01:27:16;1533.88;;;999.90;;
24096;SDS011;12275;48.550;12.132;2023-07-13T01:29:45;1502.72;;;999.90;;
24096;SDS011;12275;48.550;12.132;2023-07-13T01:32:13;1504.57;;;999.90;;
24096;SDS011;12275;48.550;12.132;2023-07-13T01:34:41;1525.22;;;999.90;;
24096;SDS011;12275;48.550;12.132;2023-07-13T01:37:12;1527.13;;;999.90;;
24096;SDS011;12275;48.550;12.132;2023-07-13T01:39:37;1502.10;;;999.90;;
24096;SDS011;12275;48.550;12.132;2023-07-13T01:42:03;1509.18;;;999.90;;
24096;SDS011;12275;48.550;12.132;2023-07-13T01:44:29;1475.70;;;999.90;;
24096;SDS011;12275;48.550;12.132;2023-07-13T01:46:55;1490.65;;;999.90;;
24096;SDS011;12275;48.550;12.132;2023-07-13T01:49:21;1511.13;;;999.90;;
24096;SDS011;12275;48.550;12.132;2023-07-13T01:51:46;1504.97;;;999.90;;
24096;SDS011;12275;48.550;12.132;2023-07-13T01:54:12;1473.97;;;999.90;;
24096;SDS011;12275;48.550;12.132;2023-07-13T01:56:37;1499.63;;;999.90;;
24096;SDS011;12275;48.550;12.132;2023-07-13T01:59:04;1464.03;;;999.90;;
24096;SDS011;12275;48.550;12.132;2023-07-13T02:01:30;1484.70;;;999.90;;
24096;SDS011;12275;48.550;12.132;2023-07-13T02:03:57;1469.57;;;999.90;;
24096;SDS011;12275;48.550;12.132;2023-07-13T02:06:23;1478.23;;;999.90;;
24096;SDS011;12275;48.550;12.132;2023-07-13T02:08:48;1465.43;;;999.90;;
24096;SDS011;12275;48.550;12.132;2023-07-13T02:11:14;1487.32;;;999.90;;
24096;SDS011;12275;48.550;12.132;2023-07-13T02:13:40;1461.77;;;999.90;;
24096;SDS011;12275;48.550;12.132;2023-07-13T02:16:05;1471.20;;;999.90;;
24096;SDS011;12275;48.550;12.132;2023-07-13T02:18:31;1466.80;;;999.90;;
24096;SDS011;12275;48.550;12.132;2023-07-13T02:20:57;1473.07;;;999.90;;
24096;SDS011;12275;48.550;12.132;2023-07-13T02:23:23;1481.75;;;999.90;;
24096;SDS011;12275;48.550;12.132;2023-07-13T02:25:49;1505.32;;;999.90;;
24096;SDS011;12275;48.550;12.132;2023-07-13T02:28:19;1489.28;;;999.90;;
24096;SDS011;12275;48.550;12.132;2023-07-13T02:30:44;1505.33;;;999.90;;
24096;SDS011;12275;48.550;12.132;2023-07-13T02:33:10;1496.20;;;999.90;;
24096;SDS011;12275;48.550;12.132;2023-07-13T02:35:36;1514.22;;;999.90;;
24096;SDS011;12275;48.550;12.132;2023-07-13T02:38:01;1537.07;;;999.90;;
24096;SDS011;12275;48.550;12.132;2023-07-13T02:40:27;1507.55;;;999.90;;
24096;SDS011;12275;48.550;12.132;2023-07-13T02:42:52;1524.63;;;999.90;;
24096;SDS011;12275;48.550;12.132;2023-07-13T02:45:18;1510.60;;;999.90;;
24096;SDS011;12275;48.550;12.132;2023-07-13T02:47:44;1520.35;;;999.90;;
24096;SDS011;12275;48.550;12.132;2023-07-13T02:50:09;1513.80;;;999.90;;
24096;SDS011;12275;48.550;12.132;2023-07-13T02:52:35;1496.85;;;999.90;;
24096;SDS011;12275;48.550;12.132;2023-07-13T02:55:01;1494.40;;;999.90;;
24096;SDS011;12275;48.550;12.132;2023-07-13T02:57:26;1486.97;;;999.90;;
24096;SDS011;12275;48.550;12.132;2023-07-13T02:59:53;1507.10;;;999.90;;
24096;SDS011;12275;48.550;12.132;2023-07-13T03:02:19;1494.63;;;999.90;;
24096;SDS011;12275;48.550;12.132;2023-07-13T03:04:45;1502.55;;;999.90;;
24096;SDS011;12275;48.550;12.132;2023-07-13T03:07:11;1478.03;;;999.90;;
24096;SDS011;12275;48.550;12.132;2023-07-13T03:09:37;1502.20;;;999.90;;
24096;SDS011;12275;48.550;12.132;2023-07-13T03:12:03;1509.57;;;999.90;;
24096;SDS011;12275;48.550;12.132;2023-07-13T03:14:29;1525.25;;;999.90;;
24096;SDS011;12275;48.550;12.132;2023-07-13T03:16:55;1537.07;;;999.90;;
24096;SDS011;12275;48.550;12.132;2023-07-13T03:19:20;1529.85;;;999.90;;
24096;SDS011;12275;48.550;12.132;2023-07-13T03:21:46;1535.80;;;999.90;;
24096;SDS011;12275;48.550;12.132;2023-07-13T03:24:12;1550.63;;;999.90;;
24096;SDS011;12275;48.550;12.132;2023-07-13T03:26:37;1541.70;;;999.90;;
24096;SDS011;12275;48.550;12.132;2023-07-13T03:29:03;1564.40;;;999.90;;
24096;SDS011;12275;48.550;12.132;2023-07-13T03:31:29;1552.40;;;999.90;;
24096;SDS011;12275;48.550;12.132;2023-07-13T03:33:58;1569.78;;;999.90;;
24096;SDS011;12275;48.550;12.132;2023-07-13T03:36:25;1551.60;;;999.90;;
24096;SDS011;12275;48.550;12.132;2023-07-13T03:38:55;1513.78;;;999.90;;
24096;SDS011;12275;48.550;12.132;2023-07-13T03:41:22;1511.00;;;999.90;;
24096;SDS011;12275;48.550;12.132;2023-07-13T03:43:49;1516.45;;;999.90;;
24096;SDS011;12275;48.550;12.132;2023-07-13T03:46:15;1509.88;;;999.90;;
24096;SDS011;12275;48.550;12.132;2023-07-13T03:48:42;1504.90;;;999.90;;
24096;SDS011;12275;48.550;12.132;2023-07-13T03:51:09;1519.32;;;999.90;;
24096;SDS011;12275;48.550;12.132;2023-07-13T03:53:39;1478.22;;;999.90;;
24096;SDS011;12275;48.550;12.132;2023-07-13T03:56:06;1479.80;;;999.90;;
24096;SDS011;12275;48.550;12.132;2023-07-13T03:58:36;1474.30;;;999.90;;
24096;SDS011;12275;48.550;12.132;2023-07-13T04:01:04;1485.20;;;999.90;;
24096;SDS011;12275;48.550;12.132;2023-07-13T04:03:32;1500.07;;;999.90;;
24096;SDS011;12275;48.550;12.132;2023-07-13T04:05:59;1520.15;;;999.90;;
24096;SDS011;12275;48.550;12.132;2023-07-13T04:08:26;1511.55;;;999.90;;
24096;SDS011;12275;48.550;12.132;2023-07-13T04:10:56;1505.43;;;999.90;;
24096;SDS011;12275;48.550;12.132;2023-07-13T04:13:22;1516.22;;;999.90;;
24096;SDS011;12275;48.550;12.132;2023-07-13T04:15:49;1539.20;;;999.90;;
24096;SDS011;12275;48.550;12.132;2023-07-13T04:18:15;1536.22;;;999.90;;
24096;SDS011;12275;48.550;12.132;2023-07-13T04:20:41;1546.32;;;999.90;;
24096;SDS011;12275;48.550;12.132;2023-07-13T04:23:06;1524.70;;;999.90;;
24096;SDS011;12275;48.550;12.132;2023-07-13T04:25:32;1501.40;;;999.90;;
24096;SDS011;12275;48.550;12.132;2023-07-13T04:27:57;1517.50;;;999.90;;
24096;SDS011;12275;48.550;12.132;2023-07-13T04:30:23;1511.97;;;999.90;;
24096;SDS011;12275;48.550;12.132;2023-07-13T04:32:52;1527.32;;;999.90;;
24096;SDS011;12275;48.550;12.132;2023-07-13T04:35:21;1522.38;;;999.90;;
24096;SDS011;12275;48.550;12.132;2023-07-13T04:37:50;1556.60;;;999.90;;
24096;SDS011;12275;48.550;12.132;2023-07-13T04:40:16;1511.40;;;999.90;;
24096;SDS011;12275;48.550;12.132;2023-07-13T04:42:43;1479.15;;;999.90;;
24096;SDS011;12275;48.550;12.132;2023-07-13T04:45:09;1473.33;;;999.90;;
24096;SDS011;12275;48.550;12.132;2023-07-13T04:47:36;1473.77;;;999.90;;
24096;SDS011;12275;48.550;12.132;2023-07-13T04:50:02;1464.95;;;999.90;;
24096;SDS011;12275;48.550;12.132;2023-07-13T04:52:28;1484.32;;;999.90;;
24096;SDS011;12275;48.550;12.132;2023-07-13T04:54:53;1478.70;;;999.90;;
24096;SDS011;12275;48.550;12.132;2023-07-13T04:57:19;1467.25;;;999.90;;
24096;SDS011;12275;48.550;12.132;2023-07-13T04:59:45;1476.68;;;999.90;;
24096;SDS011;12275;48.550;12.132;2023-07-13T05:02:10;1471.78;;;999.90;;
24096;SDS011;12275;48.550;12.132;2023-07-13T05:04:36;1458.67;;;999.90;;
24096;SDS011;12275;48.550;12.132;2023-07-13T05:07:02;1470.07;;;999.90;;
24096;SDS011;12275;48.550;12.132;2023-07-13T05:09:27;1464.73;;;999.90;;
24096;SDS011;12275;48.550;12.132;2023-07-13T05:11:53;1468.38;;;999.90;;
24096;SDS011;12275;48.550;12.132;2023-07-13T05:14:19;1466.28;;;999.90;;
24096;SDS011;12275;48.550;12.132;2023-07-13T05:16:44;1463.77;;;999.90;;
24096;SDS011;12275;48.550;12.132;2023-07-13T05:19:10;1489.25;;;999.90;;
24096;SDS011;12275;48.550;12.132;2023-07-13T05:21:37;1488.65;;;999.90;;
24096;SDS011;12275;48.550;12.132;2023-07-13T05:24:02;1464.15;;;999.90;;
24096;SDS011;12275;48.550;12.132;2023-07-13T05:26:28;1486.53;;;999.90;;
24096;SDS011;12275;48.550;12.132;2023-07-13T05:28:54;1496.13;;;999.90;;
24096;SDS011;12275;48.550;12.132;2023-07-13T05:31:19;1485.65;;;999.90;;
24096;SDS011;12275;48.550;12.132;2023-07-13T05:33:45;1471.30;;;999.90;;
24096;SDS011;12275;48.550;12.132;2023-07-13T05:36:11;1473.63;;;999.90;;
24096;SDS011;12275;48.550;12.132;2023-07-13T05:38:36;1467.67;;;999.90;;
24096;SDS011;12275;48.550;12.132;2023-07-13T05:41:02;1460.55;;;999.90;;
24096;SDS011;12275;48.550;12.132;2023-07-13T05:43:28;1473.03;;;999.90;;
24096;SDS011;12275;48.550;12.132;2023-07-13T05:45:54;1469.60;;;999.90;;
24096;SDS011;12275;48.550;12.132;2023-07-13T05:48:21;1459.55;;;999.90;;
24096;SDS011;12275;48.550;12.132;2023-07-13T05:50:46;1466.63;;;999.90;;
24096;SDS011;12275;48.550;12.132;2023-07-13T05:53:12;1462.70;;;999.90;;
24096;SDS011;12275;48.550;12.132;2023-07-13T05:55:44;1483.47;;;999.90;;
24096;SDS011;12275;48.550;12.132;2023-07-13T05:58:18;1487.70;;;999.90;;
24096;SDS011;12275;48.550;12.132;2023-07-13T06:00:44;1483.43;;;999.90;;
24096;SDS011;12275;48.550;12.132;2023-07-13T06:03:09;1525.23;;;999.90;;
24096;SDS011;12275;48.550;12.132;2023-07-13T06:05:35;1525.97;;;999.90;;
24096;SDS011;12275;48.550;12.132;2023-07-13T06:08:03;1528.38;;;999.90;;
24096;SDS011;12275;48.550;12.132;2023-07-13T06:10:28;1502.68;;;999.90;;
24096;SDS011;12275;48.550;12.132;2023-07-13T06:12:57;1513.43;;;999.90;;
24096;SDS011;12275;48.550;12.132;2023-07-13T06:15:22;1535.33;;;999.90;;
24096;SDS011;12275;48.550;12.132;2023-07-13T06:17:48;1542.38;;;999.90;;
24096;SDS011;12275;48.550;12.132;2023-07-13T06:20:14;1525.93;;;999.90;;
24096;SDS011;12275;48.550;12.132;2023-07-13T06:22:39;1531.90;;;999.90;;
24096;SDS011;12275;48.550;12.132;2023-07-13T06:25:05;1531.43;;;999.90;;
24096;SDS011;12275;48.550;12.132;2023-07-13T06:27:31;1552.78;;;999.90;;
24096;SDS011;12275;48.550;12.132;2023-07-13T06:29:57;1559.20;;;999.90;;
24096;SDS011;12275;48.550;12.132;2023-07-13T06:32:22;1512.63;;;999.90;;
24096;SDS011;12275;48.550;12.132;2023-07-13T06:34:48;1528.15;;;999.90;;
24096;SDS011;12275;48.550;12.132;2023-07-13T06:37:14;1511.43;;;999.90;;
24096;SDS011;12275;48.550;12.132;2023-07-13T06:39:39;1505.97;;;999.90;;
24096;SDS011;12275;48.550;12.132;2023-07-13T06:42:05;1487.93;;;999.90;;
24096;SDS011;12275;48.550;12.132;2023-07-13T06:44:31;1508.57;;;999.90;;
24096;SDS011;12275;48.550;12.132;2023-07-13T06:46:57;1510.72;;;999.90;;
24096;SDS011;12275;48.550;12.132;2023-07-13T06:49:22;1482.80;;;999.90;;
24096;SDS011;12275;48.550;12.132;2023-07-13T06:51:48;1502.70;;;999.90;;
24096;SDS011;12275;48.550;12.132;2023-07-13T06:54:13;1494.40;;;999.90;;
24096;SDS011;12275;48.550;12.132;2023-07-13T06:56:39;1510.70;;;999.90;;
24096;SDS011;12275;48.550;12.132;2023-07-13T06:59:05;1515.47;;;999.90;;
24096;SDS011;12275;48.550;12.132;2023-07-13T07:01:30;1533.00;;;999.90;;
24096;SDS011;12275;48.550;12.132;2023-07-13T07:03:56;1520.32;;;999.90;;
24096;SDS011;12275;48.550;12.132;2023-07-13T07:06:22;1498.63;;;999.90;;
24096;SDS011;12275;48.550;12.132;2023-07-13T07:08:51;1485.32;;;999.90;;
24096;SDS011;12275;48.550;12.132;2023-07-13T07:11:21;1506.75;;;999.90;;
24096;SDS011;12275;48.550;12.132;2023-07-13T07:13:49;1514.97;;;999.90;;
24096;SDS011;12275;48.550;12.132;2023-07-13T07:16:16;1505.32;;;999.90;;
24096;SDS011;12275;48.550;12.132;2023-07-13T07:18:42;1495.25;;;999.90;;
24096;SDS011;12275;48.550;12.132;2023-07-13T07:21:08;1516.40;;;999.90;;
24096;SDS011;12275;48.550;12.132;2023-07-13T07:23:34;1544.10;;;999.90;;
24096;SDS011;12275;48.550;12.132;2023-07-13T07:25:59;1537.93;;;999.90;;
24096;SDS011;12275;48.550;12.132;2023-07-13T07:28:25;1518.05;;;999.90;;
24096;SDS011;12275;48.550;12.132;2023-07-13T07:30:53;1528.63;;;999.90;;
24096;SDS011;12275;48.550;12.132;2023-07-13T07:33:20;1526.30;;;999.90;;
24096;SDS011;12275;48.550;12.132;2023-07-13T07:35:46;1510.65;;;999.90;;
24096;SDS011;12275;48.550;12.132;2023-07-13T07:38:12;1527.07;;;999.90;;
24096;SDS011;12275;48.550;12.132;2023-07-13T07:40:38;1502.53;;;999.90;;
24096;SDS011;12275;48.550;12.132;2023-07-13T07:43:05;1517.63;;;999.90;;
24096;SDS011;12275;48.550;12.132;2023-07-13T07:45:35;1518.50;;;999.90;;
24096;SDS011;12275;48.550;12.132;2023-07-13T07:48:02;1488.63;;;999.90;;
24096;SDS011;12275;48.550;12.132;2023-07-13T07:50:29;1507.55;;;999.90;;
24096;SDS011;12275;48.550;12.132;2023-07-13T07:52:55;1513.32;;;999.90;;
24096;SDS011;12275;48.550;12.132;2023-07-13T07:55:23;1515.78;;;999.90;;
24096;SDS011;12275;48.550;12.132;2023-07-13T07:57:52;1525.22;;;999.90;;
24096;SDS011;12275;48.550;12.132;2023-07-13T08:00:17;1524.77;;;999.90;;
24096;SDS011;12275;48.550;12.132;2023-07-13T08:02:46;1519.43;;;999.90;;
24096;SDS011;12275;48.550;12.132;2023-07-13T08:05:13;1506.40;;;999.90;;
24096;SDS011;12275;48.550;12.132;2023-07-13T08:07:39;1511.85;;;999.90;;
24096;SDS011;12275;48.550;12.132;2023-07-13T08:10:05;1518.03;;;999.90;;
24096;SDS011;12275;48.550;12.132;2023-07-13T08:12:35;1523.45;;;999.90;;
24096;SDS011;12275;48.550;12.132;2023-07-13T08:15:02;1530.13;;;999.90;;
24096;SDS011;12275;48.550;12.132;2023-07-13T08:17:28;1541.45;;;999.90;;
24096;SDS011;12275;48.550;12.132;2023-07-13T08:19:53;1531.82;;;999.90;;
24096;SDS011;12275;48.550;12.132;2023-07-13T08:22:19;1491.03;;;999.90;;
24096;SDS011;12275;48.550;12.132;2023-07-13T08:24:45;1487.77;;;999.90;;
24096;SDS011;12275;48.550;12.132;2023-07-13T08:27:12;1482.35;;;999.90;;
24096;SDS011;12275;48.550;12.132;2023-07-13T08:29:38;1494.77;;;999.90;;
24096;SDS011;12275;48.550;12.132;2023-07-13T08:32:05;1489.87;;;999.90;;
24096;SDS011;12275;48.550;12.132;2023-07-13T08:34:34;1487.90;;;999.90;;
24096;SDS011;12275;48.550;12.132;2023-07-13T08:37:00;1493.15;;;999.90;;
24096;SDS011;12275;48.550;12.132;2023-07-13T08:39:26;1496.22;;;999.90;;
24096;SDS011;12275;48.550;12.132;2023-07-13T08:41:54;1500.32;;;999.90;;
24096;SDS011;12275;48.550;12.132;2023-07-13T08:44:31;1489.60;;;999.90;;
24096;SDS011;12275;48.550;12.132;2023-07-13T08:47:07;1490.05;;;999.90;;
24096;SDS011;12275;48.550;12.132;2023-07-13T08:49:34;1487.53;;;999.90;;
24096;SDS011;12275;48.550;12.132;2023-07-13T08:52:06;1481.50;;;999.90;;
24096;SDS011;12275;48.550;12.132;2023-07-13T08:54:45;1479.27;;;999.90;;
24096;SDS011;12275;48.550;12.132;2023-07-13T08:57:15;1482.37;;;999.90;;
24096;SDS011;12275;48.550;12.132;2023-07-13T08:59:44;1484.60;;;999.90;;
24096;SDS011;12275;48.550;12.132;2023-07-13T09:04:50;1483.47;;;999.90;;
24096;SDS011;12275;48.550;12.132;2023-07-13T09:10:29;1487.22;;;999.90;;
24096;SDS011;12275;48.550;12.132;2023-07-13T09:15:55;1485.18;;;999.90;;
24096;SDS011;12275;48.550;12.132;2023-07-13T09:18:23;1482.88;;;999.90;;
24096;SDS011;12275;48.550;12.132;2023-07-13T09:21:02;1480.60;;;999.90;;
24096;SDS011;12275;48.550;12.132;2023-07-13T09:23:42;1473.70;;;999.90;;
24096;SDS011;12275;48.550;12.132;2023-07-13T09:26:19;1480.97;;;999.90;;
24096;SDS011;12275;48.550;12.132;2023-07-13T09:28:48;1481.00;;;999.90;;
24096;SDS011;12275;48.550;12.132;2023-07-13T09:31:26;1492.60;;;999.90;;
24096;SDS011;12275;48.550;12.132;2023-07-13T09:34:01;1499.07;;;999.90;;
24096;SDS011;12275;48.550;12.132;2023-07-13T09:36:28;1488.93;;;999.90;;
24096;SDS011;12275;48.550;12.132;2023-07-13T09:39:04;1493.03;;;999.90;;
24096;SDS011;12275;48.550;12.132;2023-07-13T09:41:55;1474.78;;;999.90;;
24096;SDS011;12275;48.550;12.132;2023-07-13T09:46:58;1477.05;;;999.90;;
24096;SDS011;12275;48.550;12.132;2023-07-13T09:49:28;1473.10;;;999.90;;
24096;SDS011;12275;48.550;12.132;2023-07-13T09:51:59;1474.30;;;999.90;;
24096;SDS011;12275;48.550;12.132;2023-07-13T09:54:27;1493.50;;;999.90;;
24096;SDS011;12275;48.550;12.132;2023-07-13T09:56:56;1504.53;;;999.90;;
24096;SDS011;12275;48.550;12.132;2023-07-13T09:59:33;1523.70;;;999.90;;
24096;SDS011;12275;48.550;12.132;2023-07-13T10:02:22;1506.28;;;999.90;;
24096;SDS011;12275;48.550;12.132;2023-07-13T10:07:28;1484.40;;;999.90;;
24096;SDS011;12275;48.550;12.132;2023-07-13T10:09:56;1498.97;;;999.90;;
24096;SDS011;12275;48.550;12.132;2023-07-13T10:12:24;1493.57;;;999.90;;
24096;SDS011;12275;48.550;12.132;2023-07-13T10:14:51;1500.10;;;999.90;;
24096;SDS011;12275;48.550;12.132;2023-07-13T10:17:29;1493.63;;;999.90;;
24096;SDS011;12275;48.550;12.132;2023-07-13T10:20:00;1497.63;;;999.90;;
24096;SDS011;12275;48.550;12.132;2023-07-13T10:22:31;1488.65;;;999.90;;
24096;SDS011;12275;48.550;12.132;2023-07-13T10:25:15;1491.23;;;999.90;;
24096;SDS011;12275;48.550;12.132;2023-07-13T10:27:43;1489.38;;;999.90;;
24096;SDS011;12275;48.550;12.132;2023-07-13T10:32:41;1490.25;;;999.90;;
24096;SDS011;12275;48.550;12.132;2023-07-13T10:35:09;1489.97;;;999.90;;
24096;SDS011;12275;48.550;12.132;2023-07-13T10:37:54;1492.18;;;999.90;;
24096;SDS011;12275;48.550;12.132;2023-07-13T10:40:29;1481.22;;;999.90;;
24096;SDS011;12275;48.550;12.132;2023-07-13T10:42:59;1485.33;;;999.90;;
24096;SDS011;12275;48.550;12.132;2023-07-13T10:45:30;1485.80;;;999.90;;
24096;SDS011;12275;48.550;12.132;2023-07-13T10:47:59;1479.90;;;999.90;;
24096;SDS011;12275;48.550;12.132;2023-07-13T10:50:26;1474.15;;;999.90;;
24096;SDS011;12275;48.550;12.132;2023-07-13T10:52:56;1476.95;;;999.90;;
24096;SDS011;12275;48.550;12.132;2023-07-13T10:58:19;1477.30;;;999.90;;
24096;SDS011;12275;48.550;12.132;2023-07-13T11:00:47;1473.78;;;999.90;;
24096;SDS011;12275;48.550;12.132;2023-07-13T11:03:26;1472.03;;;999.90;;
24096;SDS011;12275;48.550;12.132;2023-07-13T11:06:17;1475.00;;;999.90;;
24096;SDS011;12275;48.550;12.132;2023-07-13T11:08:58;1477.10;;;999.90;;
24096;SDS011;12275;48.550;12.132;2023-07-13T11:11:43;1493.78;;;999.90;;
24096;SDS011;12275;48.550;12.132;2023-07-13T11:27:52;1494.10;;;999.90;;
24096;SDS011;12275;48.550;12.132;2023-07-13T11:38:38;1481.40;;;999.90;;
24096;SDS011;12275;48.550;12.132;2023-07-13T11:41:15;1485.57;;;999.90;;
24096;SDS011;12275;48.550;12.132;2023-07-13T11:43:55;1471.72;;;999.90;;
24096;SDS011;12275;48.550;12.132;2023-07-13T11:46:52;1471.60;;;999.90;;
24096;SDS011;12275;48.550;12.132;2023-07-13T11:49:20;1462.13;;;999.90;;
24096;SDS011;12275;48.550;12.132;2023-07-13T11:51:47;1461.00;;;999.90;;
24096;SDS011;12275;48.550;12.132;2023-07-13T11:56:59;1477.88;;;999.90;;
24096;SDS011;12275;48.550;12.132;2023-07-13T11:59:31;1478.35;;;999.90;;
24096;SDS011;12275;48.550;12.132;2023-07-13T12:01:58;1486.53;;;999.90;;
24096;SDS011;12275;48.550;12.132;2023-07-13T12:04:25;1467.80;;;999.90;;
24096;SDS011;12275;48.550;12.132;2023-07-13T12:06:58;1478.68;;;999.90;;
24096;SDS011;12275;48.550;12.132;2023-07-13T12:09:30;1475.97;;;999.90;;
24096;SDS011;12275;48.550;12.132;2023-07-13T12:11:56;1474.20;;;999.90;;
24096;SDS011;12275;48.550;12.132;2023-07-13T12:14:25;1464.37;;;999.90;;
24096;SDS011;12275;48.550;12.132;2023-07-13T12:16:51;1470.90;;;999.90;;
24096;SDS011;12275;48.550;12.132;2023-07-13T12:19:19;1471.87;;;999.90;;
24096;SDS011;12275;48.550;12.132;2023-07-13T12:21:48;1455.18;;;999.90;;
24096;SDS011;12275;48.550;12.132;2023-07-13T12:24:16;1454.35;;;999.90;;
24096;SDS011;12275;48.550;12.132;2023-07-13T12:26:42;1462.43;;;999.90;;
24096;SDS011;12275;48.550;12.132;2023-07-13T12:29:10;1453.50;;;999.90;;
24096;SDS011;12275;48.550;12.132;2023-07-13T12:31:41;1479.47;;;999.90;;
24096;SDS011;12275;48.550;12.132;2023-07-13T12:34:16;1468.45;;;999.90;;
24096;SDS011;12275;48.550;12.132;2023-07-13T12:36:48;1475.63;;;999.90;;
24096;SDS011;12275;48.550;12.132;2023-07-13T12:39:17;1480.30;;;999.90;;
24096;SDS011;12275;48.550;12.132;2023-07-13T12:41:48;1466.93;;;999.90;;
24096;SDS011;12275;48.550;12.132;2023-07-13T12:44:22;1481.33;;;999.90;;
24096;SDS011;12275;48.550;12.132;2023-07-13T12:47:04;1462.63;;;999.90;;
24096;SDS011;12275;48.550;12.132;2023-07-13T12:49:39;1483.53;;;999.90;;
24096;SDS011;12275;48.550;12.132;2023-07-13T12:52:15;1477.25;;;999.90;;
24096;SDS011;12275;48.550;12.132;2023-07-13T12:54:51;1451.18;;;999.90;;
24096;SDS011;12275;48.550;12.132;2023-07-13T12:57:22;1453.22;;;999.90;;
24096;SDS011;12275;48.550;12.132;2023-07-13T12:59:51;1463.40;;;999.90;;
24096;SDS011;12275;48.550;12.132;2023-07-13T13:02:30;1461.25;;;999.90;;
24096;SDS011;12275;48.550;12.132;2023-07-13T13:04:59;1463.10;;;999.90;;
24096;SDS011;12275;48.550;12.132;2023-07-13T13:07:25;1454.65;;;999.90;;
24096;SDS011;12275;48.550;12.132;2023-07-13T13:09:51;1447.47;;;999.90;;
24096;SDS011;12275;48.550;12.132;2023-07-13T13:12:19;1458.93;;;999.90;;
24096;SDS011;12275;48.550;12.132;2023-07-13T13:14:45;1452.40;;;999.90;;
24096;SDS011;12275;48.550;12.132;2023-07-13T13:17:29;1451.38;;;999.90;;
24096;SDS011;12275;48.550;12.132;2023-07-13T13:19:56;1448.72;;;999.90;;
24096;SDS011;12275;48.550;12.132;2023-07-13T13:22:22;1460.73;;;999.90;;
24096;SDS011;12275;48.550;12.132;2023-07-13T13:24:48;1437.88;;;999.90;;
24096;SDS011;12275;48.550;12.132;2023-07-13T13:27:17;1459.70;;;999.90;;
24096;SDS011;12275;48.550;12.132;2023-07-13T13:29:44;1447.10;;;999.90;;
24096;SDS011;12275;48.550;12.132;2023-07-13T13:32:11;1465.55;;;999.90;;
24096;SDS011;12275;48.550;12.132;2023-07-13T13:34:38;1469.45;;;999.90;;
24096;SDS011;12275;48.550;12.132;2023-07-13T13:37:04;1444.70;;;999.90;;
24096;SDS011;12275;48.550;12.132;2023-07-13T13:39:36;1467.00;;;999.90;;
24096;SDS011;12275;48.550;12.132;2023-07-13T13:42:04;1471.78;;;999.90;;
24096;SDS011;12275;48.550;12.132;2023-07-13T13:44:30;1461.25;;;999.90;;
24096;SDS011;12275;48.550;12.132;2023-07-13T13:46:55;1455.80;;;999.90;;
24096;SDS011;12275;48.550;12.132;2023-07-13T13:49:25;1442.93;;;999.90;;
24096;SDS011;12275;48.550;12.132;2023-07-13T13:51:52;1444.77;;;999.90;;
24096;SDS011;12275;48.550;12.132;2023-07-13T13:54:19;1442.57;;;999.90;;
24096;SDS011;12275;48.550;12.132;2023-07-13T13:56:46;1432.57;;;999.90;;
24096;SDS011;12275;48.550;12.132;2023-07-13T13:59:14;1436.40;;;999.90;;
24096;SDS011;12275;48.550;12.132;2023-07-13T14:01:40;1459.60;;;999.90;;
24096;SDS011;12275;48.550;12.132;2023-07-13T14:04:20;1443.78;;;999.90;;
24096;SDS011;12275;48.550;12.132;2023-07-13T14:06:47;1454.77;;;999.90;;
24096;SDS011;12275;48.550;12.132;2023-07-13T14:09:15;1447.47;;;999.90;;
24096;SDS011;12275;48.550;12.132;2023-07-13T14:11:43;1462.70;;;999.90;;
24096;SDS011;12275;48.550;12.132;2023-07-13T14:14:20;1441.38;;;999.90;;
24096;SDS011;12275;48.550;12.132;2023-07-13T14:16:48;1445.57;;;999.90;;
24096;SDS011;12275;48.550;12.132;2023-07-13T14:19:18;1439.10;;;999.90;;
24096;SDS011;12275;48.550;12.132;2023-07-13T14:21:46;1454.40;;;999.90;;
24096;SDS011;12275;48.550;12.132;2023-07-13T14:24:14;1449.72;;;999.90;;
24096;SDS011;12275;48.550;12.132;2023-07-13T14:26:40;1440.07;;;999.90;;